Terminal Aerodrome Forecast
Issued by NWS Upton, NY

Home | Current Version | Previous Version | Text Only | Print | Product List | Glossary On
Versions: 1 2 3 4 5 6 7 8 9 10 11 12 13 14 15 16 17 18 19 20 21 22 23 24 25 26 27 28 29 30 31 32 33 34 35
852
FTUS41 KOKX 240832 AAA
TAFEWR
TAF AMD
KEWR 240832Z 2409/2512 14006KT 6SM -RA FEW035 OVC090
     FM241400 05010KT P6SM SCT040 OVC060
     FM242100 08009KT P6SM FEW030 OVC060
     FM250300 09010KT 6SM -RA BKN020 OVC040
     FM250800 07012KT 6SM -RA BR BKN007 OVC020=

USA.gov is the U.S. government's official web portal to all federal, state and local government web resources and services.